createdAt,value
2022-09-29T00:00:39.819Z,5.80
2022-09-29T00:03:08.542Z,6.37
2022-09-29T00:05:36.802Z,5.63
2022-09-29T00:08:06.519Z,5.70
2022-09-29T00:10:34.709Z,6.67
2022-09-29T00:13:02.910Z,6.03
2022-09-29T00:15:31.130Z,6.57
2022-09-29T00:18:13.091Z,5.70
2022-09-29T00:20:42.070Z,6.73
2022-09-29T00:23:11.622Z,6.13
2022-09-29T00:25:39.773Z,6.30
2022-09-29T00:28:07.952Z,7.17
2022-09-29T00:30:36.150Z,6.80
2022-09-29T00:33:04.341Z,6.90
2022-09-29T00:35:32.530Z,6.73
2022-09-29T00:38:00.697Z,7.17
2022-09-29T00:40:30.249Z,6.23
2022-09-29T00:42:58.432Z,7.73
2022-09-29T00:45:26.610Z,7.30
2022-09-29T00:48:01.966Z,6.13
2022-09-29T00:50:35.289Z,7.27
2022-09-29T00:53:11.913Z,7.27
2022-09-29T00:55:44.414Z,7.10
2022-09-29T00:58:14.892Z,6.90
2022-09-29T01:00:43.801Z,6.83
2022-09-29T01:03:14.583Z,7.33
2022-09-29T01:05:45.937Z,6.40
2022-09-29T01:08:16.620Z,7.30
2022-09-29T01:10:46.890Z,7.53
2022-09-29T01:13:15.096Z,8.10
2022-09-29T01:15:43.298Z,6.90
2022-09-29T01:18:11.682Z,7.90
2022-09-29T01:20:43.837Z,8.90
2022-09-29T01:23:27.030Z,7.10
2022-09-29T01:26:13.670Z,7.50
2022-09-29T01:28:50.821Z,7.60
2022-09-29T01:31:26.098Z,6.50
2022-09-29T01:33:58.583Z,7.10
2022-09-29T01:36:32.056Z,6.60
2022-09-29T01:39:05.112Z,6.47
2022-09-29T01:41:37.065Z,6.40
2022-09-29T01:44:08.225Z,7.33
2022-09-29T01:46:40.220Z,6.93
2022-09-29T01:49:09.346Z,7.97
2022-09-29T01:51:40.120Z,7.50
2022-09-29T01:54:11.631Z,6.90
2022-09-29T01:56:42.509Z,7.60
2022-09-29T01:59:14.034Z,7.13
2022-09-29T02:01:45.233Z,7.77
2022-09-29T02:04:15.203Z,8.97
2022-09-29T02:06:47.090Z,8.83
2022-09-29T02:09:17.850Z,8.00
2022-09-29T02:11:46.144Z,7.97
2022-09-29T02:14:16.757Z,7.37
2022-09-29T02:16:48.697Z,8.27
2022-09-29T02:19:18.377Z,8.10
2022-09-29T02:21:46.602Z,7.37
2022-09-29T02:24:15.218Z,7.40
2022-09-29T02:26:45.196Z,7.93
2022-09-29T02:29:13.406Z,8.87
2022-09-29T02:31:42.140Z,9.10
2022-09-29T02:34:13.441Z,7.97
2022-09-29T02:36:44.429Z,8.30
2022-09-29T02:39:16.722Z,8.90
2022-09-29T02:41:51.367Z,9.10
2022-09-29T02:44:27.569Z,8.53
2022-09-29T02:47:01.731Z,8.67
2022-09-29T02:49:34.801Z,8.50
2022-09-29T02:52:07.213Z,8.60
2022-09-29T02:54:43.603Z,8.23
2022-09-29T02:57:18.743Z,8.30
2022-09-29T02:59:51.810Z,8.10
2022-09-29T03:02:25.205Z,8.93
2022-09-29T03:04:55.151Z,8.50
2022-09-29T03:07:23.633Z,8.87
2022-09-29T03:09:51.801Z,9.33
2022-09-29T03:12:20.572Z,9.13
2022-09-29T03:14:48.716Z,9.13
2022-09-29T03:17:16.919Z,8.90
2022-09-29T03:19:45.126Z,8.70
2022-09-29T03:22:14.766Z,8.47
2022-09-29T03:24:42.969Z,9.97
2022-09-29T03:27:11.162Z,9.30
2022-09-29T03:29:39.904Z,10.07
2022-09-29T03:32:08.266Z,8.07
2022-09-29T03:34:36.551Z,8.57
2022-09-29T03:37:05.014Z,8.30
2022-09-29T03:39:34.586Z,9.80
2022-09-29T03:42:02.778Z,9.03
2022-09-29T03:44:31.205Z,7.17
2022-09-29T03:46:59.464Z,8.30
2022-09-29T03:49:27.703Z,8.60
2022-09-29T03:51:56.052Z,8.40
2022-09-29T03:54:26.394Z,7.27
2022-09-29T03:56:55.943Z,8.23
2022-09-29T03:59:24.209Z,7.27
2022-09-29T04:01:52.509Z,7.20
2022-09-29T04:04:20.785Z,8.00
2022-09-29T04:06:48.944Z,8.30
2022-09-29T04:09:17.179Z,7.40
2022-09-29T04:11:45.361Z,7.60
2022-09-29T04:14:14.928Z,7.97
2022-09-29T04:16:43.189Z,8.57
2022-09-29T04:19:11.535Z,7.30
2022-09-29T04:21:39.786Z,7.90
2022-09-29T04:24:08.156Z,8.13
2022-09-29T04:26:36.340Z,8.07
2022-09-29T04:29:04.531Z,7.87
2022-09-29T04:31:34.070Z,7.50
2022-09-29T04:34:02.293Z,6.87
2022-09-29T04:36:30.584Z,8.10
2022-09-29T04:38:58.781Z,6.63
2022-09-29T04:41:26.960Z,7.70
2022-09-29T04:43:55.161Z,8.20
2022-09-29T04:46:23.590Z,6.90
2022-09-29T04:48:53.193Z,6.83
2022-09-29T04:51:21.380Z,6.40
2022-09-29T04:53:49.556Z,7.37
2022-09-29T04:56:17.713Z,7.27
2022-09-29T04:58:45.897Z,6.37
2022-09-29T05:01:14.240Z,7.07
2022-09-29T05:03:42.954Z,6.73
2022-09-29T05:06:13.194Z,6.57
2022-09-29T05:08:41.457Z,6.40
2022-09-29T05:11:10.594Z,6.77
2022-09-29T05:13:39.348Z,7.07
2022-09-29T05:16:07.974Z,7.30
2022-09-29T05:18:36.512Z,6.40
2022-09-29T05:21:26.378Z,6.93
2022-09-29T05:23:55.382Z,6.30
2022-09-29T05:26:23.549Z,6.60
2022-09-29T05:28:51.751Z,6.10
2022-09-29T05:31:20.034Z,6.37
2022-09-29T05:33:48.384Z,6.50
2022-09-29T05:36:16.565Z,5.97
2022-09-29T05:38:44.788Z,7.47
2022-09-29T05:41:16.262Z,6.87
2022-09-29T05:43:44.647Z,6.27
2022-09-29T05:46:12.936Z,7.30
2022-09-29T05:48:41.273Z,7.13
2022-09-29T05:51:10.476Z,7.43
2022-09-29T05:53:39.236Z,8.23
2022-09-29T05:56:08.043Z,7.50
2022-09-29T05:58:37.925Z,7.13
2022-09-29T06:01:09.440Z,5.10
2022-09-29T06:03:38.061Z,6.87
2022-09-29T06:06:07.299Z,7.63
2022-09-29T06:08:35.490Z,9.17
2022-09-29T06:11:07.604Z,7.20
2022-09-29T06:13:35.809Z,7.77
2022-09-29T06:16:05.553Z,8.37
2022-09-29T06:18:33.736Z,8.07
2022-09-29T06:21:02.644Z,7.30
2022-09-29T06:23:30.861Z,8.13
2022-09-29T06:25:59.434Z,8.97
2022-09-29T06:28:27.788Z,7.87
2022-09-29T06:31:00.557Z,9.50
2022-09-29T06:33:30.180Z,8.43
2022-09-29T06:36:16.026Z,8.63
2022-09-29T06:38:44.297Z,7.80
2022-09-29T06:41:12.467Z,8.60
2022-09-29T06:43:40.631Z,10.03
2022-09-29T06:46:08.861Z,9.17
2022-09-29T06:48:39.543Z,8.80
2022-09-29T06:51:10.342Z,10.00
2022-09-29T06:53:39.386Z,9.03
2022-09-29T06:56:08.929Z,9.23
2022-09-29T06:58:37.631Z,9.33
2022-09-29T07:01:06.965Z,11.33
2022-09-29T07:03:36.223Z,8.70
2022-09-29T07:06:19.212Z,10.30
2022-09-29T07:08:48.522Z,10.10
2022-09-29T07:11:18.600Z,9.47
2022-09-29T07:13:47.966Z,10.87
2022-09-29T07:16:18.837Z,10.37
2022-09-29T07:18:47.124Z,11.83
2022-09-29T07:21:17.759Z,11.07
2022-09-29T07:23:46.961Z,9.47
2022-09-29T07:26:16.363Z,11.63
2022-09-29T07:28:44.837Z,10.77
2022-09-29T07:31:15.728Z,11.73
2022-09-29T07:33:44.429Z,12.40
2022-09-29T07:36:12.959Z,11.90
2022-09-29T07:38:42.550Z,12.13
2022-09-29T07:41:12.185Z,12.03
2022-09-29T07:43:40.681Z,12.73
2022-09-29T07:46:09.277Z,12.67
2022-09-29T07:48:38.259Z,12.70
2022-09-29T07:51:07.553Z,12.27
2022-09-29T07:53:36.980Z,12.73
2022-09-29T07:56:07.405Z,12.07
2022-09-29T07:58:37.486Z,13.30
2022-09-29T08:01:06.690Z,12.00
2022-09-29T08:03:35.217Z,12.97
2022-09-29T08:06:04.118Z,12.70
2022-09-29T08:08:32.448Z,11.80
2022-09-29T08:11:04.494Z,13.60
2022-09-29T08:13:35.951Z,13.40
2022-09-29T08:16:05.153Z,12.20
2022-09-29T08:18:34.335Z,13.57
2022-09-29T08:21:03.871Z,13.17
2022-09-29T08:23:32.796Z,12.53
2022-09-29T08:26:02.560Z,12.20
2022-09-29T08:28:32.488Z,14.23
2022-09-29T08:31:08.003Z,15.10
2022-09-29T08:33:36.438Z,13.90
2022-09-29T08:36:14.352Z,14.47
2022-09-29T08:38:46.201Z,14.57
2022-09-29T08:41:21.682Z,14.80
2022-09-29T08:43:51.128Z,17.50
2022-09-29T08:46:33.819Z,14.90
2022-09-29T08:49:06.792Z,17.23
2022-09-29T08:51:42.675Z,17.33
2022-09-29T08:54:17.151Z,18.63
2022-09-29T08:56:47.155Z,15.13
2022-09-29T08:59:15.329Z,16.13
2022-09-29T09:01:50.214Z,14.50
2022-09-29T09:04:30.769Z,16.53
2022-09-29T09:07:04.614Z,12.60
2022-09-29T09:09:46.594Z,15.83
2022-09-29T09:12:25.476Z,16.07
2022-09-29T09:14:59.634Z,14.20
2022-09-29T09:17:38.283Z,14.90
2022-09-29T09:20:15.044Z,13.73
2022-09-29T09:22:49.186Z,14.07
2022-09-29T09:25:23.613Z,11.23
2022-09-29T09:27:54.708Z,7.93
2022-09-29T09:30:24.486Z,10.00
2022-09-29T09:32:56.938Z,10.23
2022-09-29T09:35:31.648Z,7.73
2022-09-29T09:38:01.825Z,8.00
2022-09-29T09:40:32.205Z,9.03
2022-09-29T09:43:05.098Z,6.40
2022-09-29T09:45:36.897Z,4.97
2022-09-29T09:48:09.751Z,3.57
2022-09-29T09:50:40.035Z,3.07
2022-09-29T09:53:15.414Z,3.43
2022-09-29T09:55:44.153Z,3.20
2022-09-29T09:58:25.864Z,3.27
2022-09-29T10:00:56.368Z,2.93
2022-09-29T10:03:28.190Z,3.10
2022-09-29T10:05:56.516Z,3.10
2022-09-29T10:08:26.585Z,2.90
2022-09-29T10:10:58.968Z,2.77
2022-09-29T10:13:28.833Z,3.13
2022-09-29T10:15:58.777Z,2.90
2022-09-29T10:18:31.464Z,2.87
2022-09-29T10:20:59.679Z,2.83
2022-09-29T10:23:29.651Z,2.43
2022-09-29T10:26:00.372Z,1.90
2022-09-29T10:28:31.165Z,2.90
2022-09-29T10:30:59.642Z,2.73
2022-09-29T10:33:32.329Z,2.87
2022-09-29T10:36:09.431Z,2.07
2022-09-29T10:38:38.425Z,2.90
2022-09-29T10:41:08.086Z,2.47
2022-09-29T10:43:38.003Z,2.30
2022-09-29T10:46:06.848Z,2.23
2022-09-29T10:48:36.499Z,2.67
2022-09-29T10:51:05.752Z,3.07
2022-09-29T10:53:35.851Z,2.50
2022-09-29T10:56:07.121Z,2.60
2022-09-29T10:58:52.716Z,2.20
2022-09-29T11:01:25.890Z,3.20
2022-09-29T11:04:01.347Z,2.63
2022-09-29T11:06:30.953Z,2.10
2022-09-29T11:09:00.828Z,2.20
2022-09-29T11:11:30.433Z,2.10
2022-09-29T11:13:59.149Z,2.30
2022-09-29T11:16:29.895Z,2.57
2022-09-29T11:19:01.466Z,1.90
2022-09-29T11:21:54.506Z,2.10
2022-09-29T11:24:28.973Z,1.70
2022-09-29T11:27:00.510Z,1.60
2022-09-29T11:29:33.665Z,2.07
2022-09-29T11:32:15.831Z,1.90
2022-09-29T11:34:51.028Z,1.83
2022-09-29T11:37:27.319Z,1.10
2022-09-29T11:39:59.773Z,1.50
2022-09-29T11:42:34.429Z,2.17
2022-09-29T11:45:03.675Z,1.93
2022-09-29T11:47:50.559Z,1.83
2022-09-29T11:50:24.009Z,1.80
2022-09-29T11:52:57.494Z,1.80
2022-09-29T11:55:30.392Z,1.70
2022-09-29T11:58:03.983Z,1.97
2022-09-29T12:00:39.024Z,1.77
2022-09-29T12:03:18.060Z,1.73
2022-09-29T12:05:55.850Z,1.53
2022-09-29T12:08:30.877Z,1.70
2022-09-29T12:11:18.015Z,1.60
2022-09-29T12:13:55.935Z,1.40
2022-09-29T12:16:26.037Z,1.77
2022-09-29T12:18:57.782Z,1.60
2022-09-29T12:21:31.028Z,1.40
2022-09-29T12:24:05.153Z,1.67
2022-09-29T12:26:33.670Z,2.03
2022-09-29T12:29:02.967Z,4.20
2022-09-29T12:31:34.864Z,2.17
2022-09-29T12:34:04.759Z,2.20
2022-09-29T12:36:53.599Z,2.40
2022-09-29T12:39:33.525Z,1.80
2022-09-29T12:42:06.067Z,2.13
2022-09-29T12:44:38.343Z,1.93
2022-09-29T12:47:11.042Z,1.70
2022-09-29T12:49:40.629Z,2.00
2022-09-29T12:52:15.537Z,1.80
2022-09-29T12:54:46.976Z,2.07
2022-09-29T12:57:16.990Z,1.70
2022-09-29T12:59:46.250Z,2.13
2022-09-29T13:02:28.177Z,2.10
2022-09-29T13:05:05.871Z,2.00
2022-09-29T13:07:52.553Z,1.43
2022-09-29T13:10:39.574Z,1.53
2022-09-29T13:13:22.649Z,1.67
2022-09-29T13:15:58.193Z,2.47
2022-09-29T13:18:34.817Z,1.60
2022-09-29T13:21:07.126Z,1.60
2022-09-29T13:23:59.581Z,1.60
2022-09-29T13:26:39.230Z,1.50
2022-09-29T13:36:35.009Z,2.50
2022-09-29T13:39:02.390Z,2.00
2022-09-29T13:41:38.854Z,2.10
2022-09-29T13:44:07.380Z,1.43
2022-09-29T13:46:38.105Z,1.53
2022-09-29T13:51:20.473Z,2.13
2022-09-29T13:53:48.740Z,2.07
2022-09-29T13:56:19.885Z,1.80
2022-09-29T13:59:01.102Z,2.53
2022-09-29T14:01:33.266Z,1.60
2022-09-29T14:04:17.571Z,2.30
2022-09-29T14:06:49.025Z,1.60
2022-09-29T14:09:19.905Z,1.83
2022-09-29T14:11:50.319Z,1.70
2022-09-29T14:14:21.263Z,2.90
2022-09-29T14:16:54.775Z,2.57
2022-09-29T14:19:27.459Z,2.30
2022-09-29T14:22:01.045Z,2.50
2022-09-29T14:24:45.497Z,1.37
2022-09-29T14:27:20.891Z,2.20
2022-09-29T14:29:50.262Z,1.90
2022-09-29T14:32:20.264Z,2.40
2022-09-29T14:34:50.811Z,2.50
2022-09-29T14:37:22.124Z,1.80
2022-09-29T14:40:04.851Z,2.63
2022-09-29T14:42:33.017Z,2.80
2022-09-29T14:45:19.347Z,2.77
2022-09-29T14:48:10.129Z,1.90
2022-09-29T14:51:01.632Z,2.47
2022-09-29T14:53:40.099Z,2.30
2022-09-29T14:56:15.466Z,2.85
2022-09-29T14:58:50.281Z,2.40
2022-09-29T15:01:22.241Z,2.93
2022-09-29T15:03:51.899Z,2.50
2022-09-29T15:06:21.114Z,2.37
2022-09-29T15:08:56.665Z,3.43
2022-09-29T15:11:29.594Z,2.73
2022-09-29T15:13:58.292Z,2.30
2022-09-29T15:16:42.214Z,2.17
2022-09-29T15:19:16.367Z,2.40
2022-09-29T15:21:57.500Z,2.67
2022-09-29T15:24:36.042Z,2.53
2022-09-29T15:27:05.227Z,2.67
2022-09-29T15:29:33.543Z,3.07
2022-09-29T15:32:01.907Z,3.57
2022-09-29T15:34:30.210Z,4.07
2022-09-29T15:36:59.796Z,3.50
2022-09-29T15:39:43.760Z,3.63
2022-09-29T15:42:15.163Z,4.40
2022-09-29T15:44:47.398Z,4.77
2022-09-29T15:47:22.449Z,5.27
2022-09-29T15:49:54.424Z,4.13
2022-09-29T15:52:23.391Z,2.70
2022-09-29T15:54:57.206Z,3.20
2022-09-29T15:57:46.954Z,3.50
2022-09-29T16:00:34.372Z,3.40
2022-09-29T16:03:04.691Z,3.20
2022-09-29T16:05:33.740Z,2.70
2022-09-29T16:08:04.021Z,2.60
2022-09-29T16:10:35.842Z,2.90
2022-09-29T16:13:08.584Z,3.03
2022-09-29T16:15:37.982Z,4.20
2022-09-29T16:18:10.352Z,4.40
2022-09-29T16:20:38.748Z,4.57
2022-09-29T16:23:07.843Z,5.30
2022-09-29T16:25:37.499Z,3.43
2022-09-29T16:28:07.338Z,4.60
2022-09-29T16:30:38.591Z,3.30
2022-09-29T16:33:14.543Z,4.60
2022-09-29T16:35:50.675Z,4.73
2022-09-29T16:38:21.145Z,4.73
2022-09-29T16:40:50.961Z,4.30
2022-09-29T16:43:23.015Z,5.17
2022-09-29T16:45:51.797Z,8.37
2022-09-29T16:48:20.510Z,6.67
2022-09-29T16:50:49.119Z,6.83
2022-09-29T16:53:28.674Z,8.60
2022-09-29T16:55:59.167Z,4.20
2022-09-29T16:58:29.293Z,3.80
2022-09-29T17:00:57.862Z,3.50
2022-09-29T17:03:26.206Z,3.80
2022-09-29T17:05:54.596Z,4.03
2022-09-29T17:08:24.223Z,4.10
2022-09-29T17:10:52.655Z,4.43
2022-09-29T17:13:25.182Z,4.03
2022-09-29T17:15:54.271Z,4.53
2022-09-29T17:18:24.949Z,4.23
2022-09-29T17:20:53.229Z,4.30
2022-09-29T17:23:21.374Z,4.80
2022-09-29T17:25:50.253Z,4.40
2022-09-29T17:28:18.907Z,6.93
2022-09-29T17:30:49.068Z,6.60
2022-09-29T17:33:19.076Z,5.40
2022-09-29T17:35:51.540Z,6.37
2022-09-29T17:38:23.951Z,5.83
2022-09-29T17:40:53.129Z,6.23
2022-09-29T17:43:23.409Z,8.40
2022-09-29T17:45:53.573Z,8.63
2022-09-29T17:48:22.162Z,9.93
2022-09-29T17:50:51.124Z,13.10
2022-09-29T17:53:19.625Z,12.37
2022-09-29T17:55:49.297Z,12.60
2022-09-29T17:58:18.033Z,11.70
2022-09-29T18:00:48.697Z,11.30
2022-09-29T18:03:19.566Z,12.03
2022-09-29T18:05:55.692Z,11.33
2022-09-29T18:08:25.156Z,10.67
2022-09-29T18:10:54.252Z,9.73
2022-09-29T18:13:22.810Z,9.57
2022-09-29T18:15:51.259Z,9.70
2022-09-29T18:18:22.355Z,9.20
2022-09-29T18:20:50.860Z,9.37
2022-09-29T18:23:20.483Z,9.80
2022-09-29T18:25:49.927Z,9.73
2022-09-29T18:28:18.670Z,10.47
2022-09-29T18:30:48.333Z,10.90
2022-09-29T18:33:17.221Z,9.40
2022-09-29T18:35:47.433Z,10.60
2022-09-29T18:38:15.643Z,9.90
2022-09-29T18:40:44.486Z,10.40
2022-09-29T18:43:14.121Z,12.10
2022-09-29T18:45:42.593Z,10.10
2022-09-29T18:48:16.500Z,10.73
2022-09-29T18:50:45.304Z,11.93
2022-09-29T18:53:16.170Z,10.27
2022-09-29T18:55:44.369Z,10.30
2022-09-29T18:58:14.410Z,9.27
2022-09-29T19:00:44.361Z,10.20
2022-09-29T19:03:12.772Z,10.03
2022-09-29T19:05:42.870Z,10.17
2022-09-29T19:08:13.041Z,11.70
2022-09-29T19:10:43.394Z,11.27
2022-09-29T19:13:15.320Z,13.00
2022-09-29T19:15:43.737Z,13.27
2022-09-29T19:18:15.787Z,14.00
2022-09-29T19:20:43.973Z,13.63
2022-09-29T19:23:12.180Z,13.80
2022-09-29T19:25:41.705Z,13.90
2022-09-29T19:28:11.237Z,12.10
2022-09-29T19:30:40.540Z,10.83
2022-09-29T19:33:10.124Z,11.70
2022-09-29T19:35:38.345Z,10.43
2022-09-29T19:38:06.541Z,11.03
2022-09-29T19:40:37.459Z,9.53
2022-09-29T19:43:06.063Z,9.77
2022-09-29T19:45:38.094Z,8.47
2022-09-29T19:48:06.725Z,9.97
2022-09-29T19:50:53.337Z,9.93
2022-09-29T19:53:21.573Z,10.80
2022-09-29T19:55:50.116Z,10.20
2022-09-29T19:58:18.361Z,13.17
2022-09-29T20:00:48.014Z,14.57
2022-09-29T20:03:16.564Z,15.67
2022-09-29T20:05:44.765Z,18.00
2022-09-29T20:08:13.179Z,13.90
2022-09-29T20:10:42.072Z,11.77
2022-09-29T20:13:14.596Z,11.67
2022-09-29T20:15:46.327Z,11.67
2022-09-29T20:18:16.277Z,9.10
2022-09-29T20:20:44.707Z,9.63
2022-09-29T20:23:12.869Z,9.50
2022-09-29T20:25:41.078Z,8.60
2022-09-29T20:28:13.021Z,7.90
2022-09-29T20:30:43.690Z,9.37
2022-09-29T20:33:12.249Z,9.53
2022-09-29T20:35:42.154Z,8.50
2022-09-29T20:38:11.489Z,6.90
2022-09-29T20:40:39.869Z,8.10
2022-09-29T20:43:10.765Z,7.43
2022-09-29T20:45:39.273Z,7.90
2022-09-29T20:48:07.759Z,9.93
2022-09-29T20:50:36.061Z,9.10
2022-09-29T20:53:05.811Z,8.37
2022-09-29T20:55:34.831Z,9.10
2022-09-29T20:58:03.672Z,8.57
2022-09-29T21:00:31.845Z,8.97
2022-09-29T21:03:00.151Z,8.50
2022-09-29T21:05:28.487Z,7.40
2022-09-29T21:07:56.694Z,7.93
2022-09-29T21:10:27.858Z,7.43
2022-09-29T21:12:56.046Z,7.80
2022-09-29T21:15:24.202Z,7.20
2022-09-29T21:17:52.612Z,7.00
2022-09-29T21:20:20.831Z,7.00
2022-09-29T21:22:50.314Z,7.23
2022-09-29T21:25:18.530Z,6.83
2022-09-29T21:27:48.132Z,7.10
2022-09-29T21:30:16.285Z,8.20
2022-09-29T21:32:44.476Z,7.30
2022-09-29T21:35:12.624Z,6.30
2022-09-29T21:37:40.775Z,6.53
2022-09-29T21:40:09.285Z,6.57
2022-09-29T21:42:37.585Z,5.43
2022-09-29T21:45:07.659Z,7.03
2022-09-29T21:47:53.627Z,5.30
2022-09-29T21:50:21.824Z,5.37
2022-09-29T21:52:50.213Z,4.90
2022-09-29T21:55:18.493Z,4.93
2022-09-29T21:57:46.641Z,5.30
2022-09-29T22:00:17.242Z,5.33
2022-09-29T22:02:45.501Z,5.40
2022-09-29T22:05:13.741Z,4.70
2022-09-29T22:07:41.920Z,5.13
2022-09-29T22:10:10.490Z,5.40
2022-09-29T22:12:38.786Z,4.30
2022-09-29T22:15:07.673Z,5.20
2022-09-29T22:17:37.347Z,4.47
2022-09-29T22:20:05.802Z,4.40
2022-09-29T22:22:33.966Z,4.90
2022-09-29T22:25:02.655Z,4.77
2022-09-29T22:27:30.801Z,5.10
2022-09-29T22:29:59.002Z,4.30
2022-09-29T22:32:27.702Z,4.40
2022-09-29T22:34:57.299Z,4.27
2022-09-29T22:37:30.881Z,4.20
2022-09-29T22:39:59.419Z,4.60
2022-09-29T22:42:28.357Z,5.13
2022-09-29T22:44:56.567Z,4.60
2022-09-29T22:47:24.752Z,4.70
2022-09-29T22:49:53.259Z,5.07
2022-09-29T22:52:22.811Z,4.80
2022-09-29T22:54:50.957Z,4.57
2022-09-29T22:57:19.162Z,4.50
2022-09-29T22:59:47.365Z,6.10
2022-09-29T23:02:15.590Z,4.83
2022-09-29T23:04:43.824Z,3.73
2022-09-29T23:07:11.996Z,4.13
2022-09-29T23:09:41.575Z,4.60
2022-09-29T23:12:11.965Z,4.93
2022-09-29T23:14:40.206Z,5.20
2022-09-29T23:17:08.391Z,4.43
2022-09-29T23:19:36.580Z,5.00
2022-09-29T23:22:04.906Z,3.60
2022-09-29T23:24:33.092Z,5.23
2022-09-29T23:27:02.665Z,4.80
2022-09-29T23:29:30.909Z,4.07
2022-09-29T23:31:59.155Z,4.30
2022-09-29T23:34:27.678Z,4.40
2022-09-29T23:36:55.832Z,3.80
2022-09-29T23:39:23.124Z,4.30
2022-09-29T23:41:52.467Z,3.60
2022-09-29T23:44:22.893Z,4.13
2022-09-29T23:46:51.438Z,4.40
2022-09-29T23:49:20.384Z,3.73
2022-09-29T23:51:49.960Z,3.53
2022-09-29T23:54:19.025Z,4.47
2022-09-29T23:56:47.243Z,3.87
2022-09-29T23:59:15.834Z,3.50
